Time;durP1;ratioP1;P1;durP2;ratioP2;P2;SDS_P1;SDS_P2;PMS_P1;PMS_P2;Temp;Humidity;BMP_temperature;BMP_pressure;BME280_temperature;BME280_humidity;BME280_pressure;Samples;Min_cycle;Max_cycle;Signal;HPM_P1;HPM_P2
2023/01/30 00:00:33;;;;;;;34.15;23.55;;;6.50;99.90;;;;;;5062052;28;20380;-62
2023/01/30 00:02:59;;;;;;;33.97;22.85;;;6.50;99.90;;;;;;5066384;28;20036;-60
2023/01/30 00:05:25;;;;;;;34.88;23.23;;;6.50;99.90;;;;;;5048635;28;20029;-58
2023/01/30 00:07:50;;;;;;;32.97;23.05;;;6.50;99.90;;;;;;5063512;28;20468;-59
2023/01/30 00:10:16;;;;;;;33.30;23.70;;;6.50;99.90;;;;;;5065357;28;20040;-61
2023/01/30 00:12:42;;;;;;;34.08;23.38;;;6.50;99.90;;;;;;5064186;28;20483;-60
2023/01/30 00:15:07;;;;;;;30.52;21.45;;;6.50;99.90;;;;;;5064760;28;20044;-60
2023/01/30 00:17:34;;;;;;;26.75;21.25;;;6.50;99.90;;;;;;5067171;28;20040;-61
2023/01/30 00:20:00;;;;;;;32.10;23.83;;;6.50;99.90;;;;;;5046685;28;20128;-60
2023/01/30 00:22:25;;;;;;;30.20;21.77;;;6.50;99.90;;;;;;5081289;28;20115;-60
2023/01/30 00:24:51;;;;;;;33.13;22.35;;;6.50;99.90;;;;;;5066236;28;20044;-59
2023/01/30 00:27:16;;;;;;;28.80;21.30;;;6.50;99.90;;;;;;5064340;28;20078;-59
2023/01/30 00:29:42;;;;;;;33.75;21.38;;;6.50;99.90;;;;;;5064110;28;20079;-59
2023/01/30 00:32:08;;;;;;;30.88;21.77;;;6.60;99.90;;;;;;5066389;28;20106;-59
2023/01/30 00:34:33;;;;;;;28.45;21.20;;;6.50;99.90;;;;;;5061999;28;20054;-61
2023/01/30 00:36:59;;;;;;;28.83;19.52;;;6.50;99.90;;;;;;5082151;28;20116;-61
2023/01/30 00:39:25;;;;;;;33.28;20.10;;;6.60;99.90;;;;;;5048449;28;20055;-59
2023/01/30 00:47:26;;;;;;;24.35;17.05;;;6.70;99.90;;;;;;5064889;28;20064;-59
2023/01/30 00:49:51;;;;;;;22.67;16.17;;;6.80;99.90;;;;;;5067703;28;20433;-61
2023/01/30 00:52:17;;;;;;;23.55;15.40;;;6.80;99.90;;;;;;5070404;28;20060;-59
2023/01/30 00:54:42;;;;;;;22.27;15.20;;;6.90;99.90;;;;;;5065657;28;20036;-59
2023/01/30 00:57:08;;;;;;;26.50;14.70;;;6.90;99.90;;;;;;5081363;28;20062;-59
2023/01/30 00:59:33;;;;;;;23.75;14.15;;;7.00;99.90;;;;;;5063285;28;20489;-60
2023/01/30 01:01:59;;;;;;;19.20;13.93;;;7.00;99.90;;;;;;5069482;28;20059;-61
2023/01/30 01:04:25;;;;;;;24.75;14.00;;;7.10;99.90;;;;;;5064401;28;20098;-60
2023/01/30 01:06:50;;;;;;;21.33;13.82;;;7.10;99.90;;;;;;5068021;28;20036;-58
2023/01/30 01:09:16;;;;;;;24.00;14.63;;;7.20;99.90;;;;;;5066278;28;20094;-60
2023/01/30 01:11:41;;;;;;;30.75;15.70;;;7.10;99.90;;;;;;5066564;28;20051;-60
2023/01/30 01:14:07;;;;;;;22.17;13.88;;;7.10;99.90;;;;;;5066249;28;20530;-60
2023/01/30 01:16:33;;;;;;;26.90;14.63;;;7.10;99.90;;;;;;5080769;28;20127;-63
2023/01/30 01:18:59;;;;;;;24.50;14.48;;;7.10;99.90;;;;;;5066973;28;20032;-61
2023/01/30 01:21:25;;;;;;;24.63;14.48;;;7.00;99.90;;;;;;5099237;28;20498;-58
2023/01/30 01:23:53;;;;;;;21.70;13.65;;;7.00;99.90;;;;;;5080185;28;20038;-60
2023/01/30 01:26:19;;;;;;;23.33;13.90;;;7.10;99.90;;;;;;5078688;28;20074;-58
2023/01/30 01:28:45;;;;;;;22.10;14.40;;;7.00;99.90;;;;;;5081339;28;20094;-60
2023/01/30 01:31:13;;;;;;;24.88;13.07;;;6.90;99.90;;;;;;5080373;28;20024;-59
2023/01/30 01:33:39;;;;;;;23.45;12.00;;;6.90;99.90;;;;;;5078443;28;20047;-59
2023/01/30 01:36:05;;;;;;;24.33;11.95;;;6.80;99.90;;;;;;5081082;28;20036;-60
2023/01/30 01:38:31;;;;;;;22.00;9.27;;;6.90;99.90;;;;;;5080157;28;20380;-60
2023/01/30 01:41:09;;;;;;;22.20;10.55;;;6.90;99.90;;;;;;5082918;28;20036;-60
2023/01/30 01:43:55;;;;;;;19.65;9.30;;;6.90;99.90;;;;;;5078060;28;20051;-60
2023/01/30 01:46:24;;;;;;;20.02;9.38;;;7.00;99.90;;;;;;5080071;28;20396;-60
2023/01/30 01:48:56;;;;;;;20.02;8.55;;;7.00;99.90;;;;;;5080232;28;20040;-57
2023/01/30 01:51:28;;;;;;;20.65;8.80;;;7.00;99.90;;;;;;5080052;28;20067;-61
2023/01/30 01:54:00;;;;;;;23.70;9.52;;;7.00;99.90;;;;;;5077113;28;20080;-60
2023/01/30 01:56:26;;;;;;;22.30;9.07;;;7.00;99.90;;;;;;5080459;28;20037;-58
2023/01/30 01:59:01;;;;;;;21.42;8.45;;;7.00;99.90;;;;;;5067435;28;20174;-58
2023/01/30 02:01:28;;;;;;;24.75;8.80;;;7.00;99.90;;;;;;5066561;28;20040;-58
2023/01/30 02:04:00;;;;;;;26.60;8.77;;;7.00;99.90;;;;;;5064048;28;20040;-61
2023/01/30 02:06:28;;;;;;;18.35;7.97;;;7.00;99.90;;;;;;5065556;28;20036;-59
2023/01/30 02:09:00;;;;;;;20.58;7.22;;;6.90;99.90;;;;;;5080929;28;20044;-60
2023/01/30 02:11:46;;;;;;;19.60;7.47;;;7.00;99.90;;;;;;5079818;28;20112;-60
2023/01/30 02:14:14;;;;;;;17.65;8.35;;;6.90;99.90;;;;;;5063613;28;20456;-58
2023/01/30 02:16:42;;;;;;;19.90;7.90;;;6.90;99.90;;;;;;5077908;28;20054;-61
2023/01/30 02:19:22;;;;;;;17.45;6.95;;;6.90;99.90;;;;;;5079781;28;20087;-57
2023/01/30 02:22:18;;;;;;;19.55;7.10;;;6.80;99.90;;;;;;5093382;28;20079;-58
2023/01/30 02:25:11;;;;;;;18.02;6.10;;;6.90;99.90;;;;;;5076989;28;20071;-59
2023/01/30 02:28:03;;;;;;;19.48;7.22;;;6.80;99.90;;;;;;5081955;28;20036;-60
2023/01/30 02:30:59;;;;;;;15.20;6.38;;;6.80;99.90;;;;;;5093952;28;20453;-58
2023/01/30 02:33:53;;;;;;;19.20;6.07;;;6.90;99.90;;;;;;5078730;28;20048;-59
2023/01/30 02:36:29;;;;;;;19.88;6.40;;;6.80;99.90;;;;;;5075115;28;20522;-60
2023/01/30 02:39:06;;;;;;;16.27;6.35;;;6.70;99.90;;;;;;5069746;28;20047;-60
2023/01/30 02:41:50;;;;;;;19.85;6.57;;;6.80;99.90;;;;;;5097732;28;20381;-61
2023/01/30 02:44:30;;;;;;;19.70;6.70;;;6.80;99.90;;;;;;5077352;28;20455;-58
2023/01/30 02:47:01;;;;;;;13.43;5.72;;;6.70;99.90;;;;;;5064992;28;20282;-59
2023/01/30 02:49:54;;;;;;;22.13;5.68;;;6.80;99.90;;;;;;5079951;28;20029;-58
2023/01/30 02:52:21;;;;;;;17.05;5.75;;;6.70;99.90;;;;;;5079791;28;20444;-58
2023/01/30 02:54:46;;;;;;;15.75;5.95;;;6.80;99.90;;;;;;5060502;28;20033;-58
2023/01/30 02:57:21;;;;;;;21.60;6.00;;;6.80;99.90;;;;;;5079215;28;20098;-58
2023/01/30 02:59:50;;;;;;;21.15;5.88;;;6.80;99.90;;;;;;5058246;28;20044;-60
2023/01/30 03:02:26;;;;;;;18.08;6.93;;;6.80;99.90;;;;;;5064613;28;20044;-60
2023/01/30 03:05:08;;;;;;;20.17;6.97;;;6.90;99.90;;;;;;5044139;28;20523;-58
2023/01/30 03:07:42;;;;;;;20.70;6.93;;;6.80;99.90;;;;;;5065221;28;20085;-58
2023/01/30 03:10:13;;;;;;;18.52;6.07;;;6.80;99.90;;;;;;5084558;28;20081;-57
2023/01/30 03:13:08;;;;;;;14.18;5.20;;;6.80;99.90;;;;;;5080887;28;20051;-57
2023/01/30 03:15:46;;;;;;;15.20;5.45;;;6.90;99.90;;;;;;5085074;28;20040;-59
2023/01/30 03:18:12;;;;;;;18.42;6.43;;;6.80;99.90;;;;;;5084216;28;20098;-59
2023/01/30 03:20:40;;;;;;;16.25;5.53;;;6.80;99.90;;;;;;5084104;28;20089;-60
2023/01/30 03:23:06;;;;;;;20.30;5.70;;;6.80;99.90;;;;;;5061171;28;20041;-59
2023/01/30 03:25:40;;;;;;;17.58;5.68;;;6.90;99.90;;;;;;5068163;28;20040;-58
2023/01/30 03:28:06;;;;;;;19.38;5.57;;;6.80;99.90;;;;;;5081004;28;20040;-58
2023/01/30 03:30:32;;;;;;;17.42;5.68;;;6.80;99.90;;;;;;5064419;28;20040;-60
2023/01/30 03:32:57;;;;;;;19.42;5.72;;;6.80;99.90;;;;;;5084324;28;20124;-60
2023/01/30 03:35:23;;;;;;;20.83;6.07;;;6.80;99.90;;;;;;5083796;28;20092;-59
2023/01/30 03:37:49;;;;;;;18.35;5.75;;;6.80;99.90;;;;;;5065002;28;20048;-60
2023/01/30 03:40:16;;;;;;;21.98;6.07;;;6.90;99.90;;;;;;5067717;28;20035;-58
2023/01/30 03:42:44;;;;;;;19.08;6.75;;;6.80;99.90;;;;;;5081024;28;20053;-58
2023/01/30 03:45:10;;;;;;;20.95;7.00;;;6.90;99.90;;;;;;5062538;28;20047;-61
2023/01/30 03:47:36;;;;;;;18.55;6.15;;;6.90;99.90;;;;;;5085130;28;20068;-58
2023/01/30 03:50:02;;;;;;;24.45;7.20;;;6.90;99.90;;;;;;5083350;28;20067;-58
2023/01/30 03:52:27;;;;;;;18.02;5.80;;;7.00;99.90;;;;;;5082884;28;20064;-61
2023/01/30 03:54:53;;;;;;;19.50;6.18;;;6.90;99.90;;;;;;5082256;28;20379;-61
2023/01/30 03:57:18;;;;;;;15.77;6.05;;;6.90;99.90;;;;;;5080466;28;20509;-59
2023/01/30 03:59:44;;;;;;;16.50;7.28;;;7.00;99.90;;;;;;5081690;28;20042;-58
2023/01/30 04:02:10;;;;;;;20.25;6.43;;;7.00;99.90;;;;;;5066514;28;20349;-59
2023/01/30 04:04:35;;;;;;;20.10;5.97;;;7.00;99.90;;;;;;5061474;28;20062;-58
2023/01/30 04:07:01;;;;;;;17.65;5.65;;;7.00;99.90;;;;;;5083165;28;20072;-60
2023/01/30 04:09:26;;;;;;;19.60;5.30;;;7.00;99.90;;;;;;5084123;28;20032;-58
2023/01/30 04:11:52;;;;;;;23.27;5.80;;;7.00;99.90;;;;;;5082947;28;20634;-59
2023/01/30 04:14:18;;;;;;;20.65;5.57;;;7.10;99.90;;;;;;5063522;28;20414;-59
2023/01/30 04:16:44;;;;;;;18.98;5.32;;;7.10;99.90;;;;;;5064513;28;20055;-60
2023/01/30 04:19:09;;;;;;;20.30;5.50;;;7.20;99.90;;;;;;5080951;28;20093;-59
2023/01/30 04:21:35;;;;;;;22.80;5.28;;;7.10;99.90;;;;;;5082148;28;20040;-60
2023/01/30 04:24:00;;;;;;;15.80;5.03;;;7.10;99.90;;;;;;5062504;28;20174;-60
2023/01/30 04:26:26;;;;;;;20.58;5.00;;;7.10;99.90;;;;;;5085001;28;20043;-58
2023/01/30 04:28:51;;;;;;;20.40;4.72;;;7.20;99.90;;;;;;5083073;28;20033;-59
2023/01/30 04:31:17;;;;;;;17.90;4.75;;;7.20;99.90;;;;;;5063817;28;20055;-57
2023/01/30 04:33:42;;;;;;;16.02;4.63;;;7.10;99.90;;;;;;5080790;28;20036;-56
2023/01/30 04:36:09;;;;;;;19.25;4.93;;;7.10;99.90;;;;;;5066241;28;20043;-58
2023/01/30 04:38:35;;;;;;;16.92;4.45;;;7.10;99.90;;;;;;5081699;28;20440;-58
2023/01/30 04:41:09;;;;;;;18.38;4.20;;;7.20;99.90;;;;;;5065754;28;20126;-58
2023/01/30 04:43:35;;;;;;;15.13;4.10;;;7.10;99.90;;;;;;5079049;28;20391;-58
2023/01/30 04:46:04;;;;;;;13.40;3.75;;;7.20;99.90;;;;;;5062574;28;20056;-58
2023/01/30 04:48:29;;;;;;;18.17;4.00;;;7.10;99.90;;;;;;5064916;28;20048;-57
2023/01/30 04:50:56;;;;;;;18.55;4.40;;;7.20;99.90;;;;;;5065859;28;20420;-57
2023/01/30 04:53:23;;;;;;;15.52;4.00;;;7.20;99.90;;;;;;5062918;28;20042;-57
2023/01/30 04:55:49;;;;;;;18.90;4.07;;;7.20;99.90;;;;;;5063558;28;20119;-60
2023/01/30 04:58:16;;;;;;;17.33;3.92;;;7.10;99.90;;;;;;5063607;28;20036;-60
2023/01/30 05:00:41;;;;;;;19.33;4.53;;;7.10;99.90;;;;;;5061273;28;20044;-58
2023/01/30 05:03:07;;;;;;;15.32;4.00;;;7.10;99.90;;;;;;5062375;28;20040;-58
2023/01/30 05:05:33;;;;;;;17.00;3.67;;;7.10;99.90;;;;;;5064948;28;20336;-60
2023/01/30 05:07:59;;;;;;;21.77;4.90;;;7.00;99.90;;;;;;5077331;28;20475;-58
2023/01/30 05:10:24;;;;;;;14.95;4.10;;;6.90;99.90;;;;;;5065193;28;20036;-60
2023/01/30 05:12:50;;;;;;;16.77;4.10;;;6.90;99.90;;;;;;5063382;28;20033;-60
2023/01/30 05:15:16;;;;;;;18.92;4.22;;;6.90;99.90;;;;;;5064569;28;20040;-58
2023/01/30 05:17:41;;;;;;;17.73;4.53;;;6.90;99.90;;;;;;5065525;28;20044;-57
2023/01/30 05:20:11;;;;;;;19.88;4.63;;;6.80;99.90;;;;;;5096475;28;20067;-58
2023/01/30 05:22:36;;;;;;;19.48;4.82;;;6.80;99.90;;;;;;5063660;28;20068;-56
2023/01/30 05:25:02;;;;;;;20.20;4.13;;;6.80;99.90;;;;;;5061723;28;20174;-61
2023/01/30 05:27:28;;;;;;;19.00;4.18;;;6.90;99.90;;;;;;5063289;28;20066;-58
2023/01/30 05:29:53;;;;;;;22.25;4.35;;;6.70;99.90;;;;;;5061754;28;20036;-60
2023/01/30 05:32:19;;;;;;;22.50;4.65;;;6.70;99.90;;;;;;5083676;28;20036;-60
2023/01/30 05:34:47;;;;;;;23.98;5.20;;;6.70;99.90;;;;;;5061606;28;20086;-59
2023/01/30 05:37:12;;;;;;;24.45;5.28;;;6.70;99.90;;;;;;5081498;28;20527;-60
2023/01/30 05:39:38;;;;;;;18.75;5.10;;;6.70;99.90;;;;;;5064958;28;20093;-60
2023/01/30 05:42:04;;;;;;;20.13;4.93;;;6.50;99.90;;;;;;5080280;28;20147;-58
2023/01/30 05:44:30;;;;;;;20.15;4.15;;;6.50;99.90;;;;;;5077417;28;20089;-60
2023/01/30 05:46:56;;;;;;;19.52;5.20;;;6.50;99.90;;;;;;5065710;28;20040;-57
2023/01/30 05:49:22;;;;;;;22.13;4.95;;;6.40;99.90;;;;;;5082475;28;20039;-58
2023/01/30 05:51:48;;;;;;;21.63;5.32;;;6.40;99.90;;;;;;5062701;28;20036;-60
2023/01/30 05:54:14;;;;;;;22.73;6.05;;;6.30;99.90;;;;;;5045295;28;20387;-61
2023/01/30 05:56:39;;;;;;;21.38;4.40;;;6.30;99.90;;;;;;5053306;28;20051;-54
2023/01/30 05:59:05;;;;;;;21.00;4.55;;;6.20;99.90;;;;;;5044138;28;20464;-60
2023/01/30 06:01:31;;;;;;;25.33;5.70;;;6.20;99.90;;;;;;5072142;28;20041;-60
2023/01/30 06:03:57;;;;;;;22.50;4.90;;;6.20;99.90;;;;;;5080381;28;20042;-60
2023/01/30 06:06:23;;;;;;;22.75;4.72;;;6.20;99.90;;;;;;5082900;28;20043;-59
2023/01/30 06:08:55;;;;;;;18.48;4.38;;;6.30;99.90;;;;;;5079417;28;20036;-60
2023/01/30 06:11:22;;;;;;;28.27;5.43;;;6.20;99.90;;;;;;5043792;28;20075;-61
2023/01/30 06:13:47;;;;;;;20.42;4.60;;;6.10;99.90;;;;;;5079077;28;20495;-59
2023/01/30 06:16:15;;;;;;;22.30;4.90;;;6.10;99.90;;;;;;5082062;28;20040;-60
2023/01/30 06:18:41;;;;;;;23.83;4.47;;;6.20;99.90;;;;;;5080627;28;20039;-58
2023/01/30 06:21:07;;;;;;;20.75;4.95;;;6.10;99.90;;;;;;5061361;28;20053;-60
2023/01/30 06:23:33;;;;;;;22.00;5.50;;;6.00;99.90;;;;;;5080641;28;20036;-61
2023/01/30 06:25:59;;;;;;;24.65;5.45;;;5.90;99.90;;;;;;5076693;28;20029;-61
2023/01/30 06:28:25;;;;;;;22.70;5.22;;;5.90;99.90;;;;;;5063542;28;20068;-59
2023/01/30 06:30:51;;;;;;;26.10;4.82;;;6.00;99.90;;;;;;5081651;28;20460;-59
2023/01/30 06:33:17;;;;;;;20.80;4.20;;;5.90;99.90;;;;;;5078721;28;20037;-59
2023/01/30 06:35:43;;;;;;;25.98;5.30;;;6.00;99.90;;;;;;5082416;28;20036;-59
2023/01/30 06:38:10;;;;;;;31.55;5.72;;;6.00;99.90;;;;;;5077119;28;20033;-60
2023/01/30 06:40:36;;;;;;;22.42;4.65;;;6.00;99.90;;;;;;5083416;28;20103;-59
2023/01/30 06:43:03;;;;;;;27.25;5.68;;;6.00;99.90;;;;;;5042944;28;20413;-62
2023/01/30 06:45:29;;;;;;;24.23;5.05;;;6.00;99.90;;;;;;5060576;28;20460;-59
2023/01/30 06:47:55;;;;;;;24.55;5.15;;;6.00;99.90;;;;;;5061013;28;20025;-61
2023/01/30 06:50:23;;;;;;;31.25;5.93;;;6.00;99.90;;;;;;5062189;28;20094;-60
2023/01/30 06:52:49;;;;;;;23.95;4.35;;;5.90;99.90;;;;;;5063131;28;20353;-61
2023/01/30 06:55:18;;;;;;;27.00;6.22;;;5.90;99.90;;;;;;5058759;28;20037;-58
2023/01/30 06:57:44;;;;;;;29.58;6.15;;;5.90;99.90;;;;;;5062294;28;20353;-59
2023/01/30 07:00:15;;;;;;;25.15;4.90;;;5.90;99.90;;;;;;5063505;28;20033;-58
2023/01/30 07:02:40;;;;;;;28.65;5.53;;;5.80;99.90;;;;;;5061545;28;20044;-59
2023/01/30 07:05:08;;;;;;;18.73;4.45;;;5.90;99.90;;;;;;5058597;28;20048;-58
2023/01/30 07:07:34;;;;;;;19.95;4.45;;;6.00;99.90;;;;;;5059609;28;20059;-60
2023/01/30 07:10:00;;;;;;;23.00;5.00;;;5.90;99.90;;;;;;5059858;28;20041;-58
2023/01/30 07:12:26;;;;;;;21.85;4.65;;;5.90;99.90;;;;;;5044276;28;20116;-59
2023/01/30 07:14:57;;;;;;;24.45;5.25;;;5.90;99.90;;;;;;5063841;28;20053;-62
2023/01/30 07:17:23;;;;;;;21.00;5.35;;;5.80;99.90;;;;;;5074884;28;20478;-58
2023/01/30 07:19:55;;;;;;;19.88;4.97;;;5.80;99.90;;;;;;5066419;28;20183;-60
2023/01/30 07:22:20;;;;;;;28.88;5.15;;;5.90;99.90;;;;;;5065892;28;20048;-61
2023/01/30 07:24:56;;;;;;;20.08;5.07;;;5.80;99.90;;;;;;5068679;28;20032;-62
2023/01/30 07:27:22;;;;;;;26.40;5.65;;;5.90;99.90;;;;;;5066534;28;20032;-61
2023/01/30 07:29:47;;;;;;;23.88;5.25;;;5.90;99.90;;;;;;5064654;28;20102;-59
2023/01/30 07:32:17;;;;;;;22.70;4.28;;;6.00;99.90;;;;;;5057527;28;20080;-59
2023/01/30 07:34:42;;;;;;;22.35;4.30;;;6.10;99.90;;;;;;5063727;28;20036;-59
2023/01/30 07:37:08;;;;;;;22.15;4.82;;;6.00;99.90;;;;;;5065992;28;20097;-59
2023/01/30 07:39:34;;;;;;;20.63;5.10;;;6.00;99.90;;;;;;5064426;28;20041;-60
2023/01/30 07:42:00;;;;;;;20.48;5.22;;;6.00;99.90;;;;;;5076213;28;20040;-59
2023/01/30 07:44:27;;;;;;;26.00;4.60;;;6.00;99.90;;;;;;5083855;28;20531;-62
2023/01/30 07:46:53;;;;;;;21.15;4.43;;;6.00;99.90;;;;;;5068793;28;20431;-61
2023/01/30 07:49:19;;;;;;;23.05;5.28;;;6.00;99.90;;;;;;5079353;28;20167;-58
2023/01/30 07:51:44;;;;;;;27.75;5.47;;;6.00;99.90;;;;;;5084389;28;20098;-59
2023/01/30 07:54:10;;;;;;;26.08;5.47;;;6.10;99.90;;;;;;5082963;28;20086;-60
2023/01/30 07:56:35;;;;;;;27.05;5.72;;;6.10;99.90;;;;;;5082089;28;20032;-59
2023/01/30 07:59:01;;;;;;;27.35;5.47;;;6.20;99.90;;;;;;5083348;28;20119;-59
2023/01/30 08:01:27;;;;;;;25.58;5.70;;;6.30;99.90;;;;;;5083498;28;20363;-58
2023/01/30 08:03:52;;;;;;;24.60;6.03;;;6.30;99.90;;;;;;5079669;28;20130;-60
2023/01/30 08:06:18;;;;;;;29.27;6.20;;;6.40;99.90;;;;;;5076865;28;20028;-60
2023/01/30 08:08:44;;;;;;;25.45;5.50;;;6.40;99.90;;;;;;5082289;28;20353;-61
2023/01/30 08:11:09;;;;;;;25.08;6.07;;;6.50;99.90;;;;;;5081182;28;20340;-60
2023/01/30 08:13:35;;;;;;;26.77;5.50;;;6.50;99.90;;;;;;5081578;28;20401;-59
2023/01/30 08:16:02;;;;;;;24.80;5.40;;;6.50;99.90;;;;;;5082549;28;20394;-59
2023/01/30 08:18:28;;;;;;;23.15;5.18;;;6.50;99.90;;;;;;5080603;28;20115;-61
2023/01/30 08:20:58;;;;;;;24.75;5.50;;;6.40;99.90;;;;;;5066683;28;20040;-59
2023/01/30 08:23:24;;;;;;;17.77;5.10;;;6.40;99.90;;;;;;5079412;28;20071;-58
2023/01/30 08:25:54;;;;;;;19.85;4.55;;;6.40;99.90;;;;;;5061479;28;20139;-59
2023/01/30 08:28:19;;;;;;;25.27;5.82;;;6.50;99.90;;;;;;5081583;28;20069;-59
2023/01/30 08:30:45;;;;;;;20.67;5.22;;;6.50;99.90;;;;;;5081341;28;20033;-59
2023/01/30 08:33:11;;;;;;;21.92;5.72;;;6.50;99.90;;;;;;5061939;28;20075;-59
2023/01/30 08:35:36;;;;;;;19.73;5.18;;;6.50;99.90;;;;;;5085650;28;20185;-59
2023/01/30 08:38:06;;;;;;;23.30;5.57;;;6.50;99.90;;;;;;5079949;28;20044;-63
2023/01/30 08:40:31;;;;;;;24.23;5.25;;;6.50;99.90;;;;;;5080160;28;20368;-59
2023/01/30 08:42:58;;;;;;;27.83;6.07;;;6.50;99.90;;;;;;5068244;28;20055;-60
2023/01/30 08:45:24;;;;;;;26.23;5.82;;;6.60;99.90;;;;;;5067230;28;20047;-59
2023/01/30 08:47:50;;;;;;;24.38;5.13;;;6.60;99.90;;;;;;5082456;28;20373;-60
2023/01/30 08:50:16;;;;;;;18.92;4.55;;;6.70;99.90;;;;;;5082012;28;20122;-61
2023/01/30 08:52:42;;;;;;;23.38;4.88;;;6.70;99.90;;;;;;5068552;28;20258;-59
2023/01/30 08:55:08;;;;;;;26.13;6.15;;;6.70;99.90;;;;;;5066926;28;20040;-60
2023/01/30 08:57:34;;;;;;;18.40;4.65;;;6.70;99.90;;;;;;5082506;28;20044;-61
2023/01/30 08:59:59;;;;;;;27.20;5.35;;;6.80;99.90;;;;;;5080363;28;20127;-59
2023/01/30 09:02:25;;;;;;;25.15;5.70;;;6.70;99.90;;;;;;5083180;28;20356;-61
2023/01/30 09:04:50;;;;;;;27.50;5.32;;;6.80;99.90;;;;;;5067369;28;20039;-61
2023/01/30 09:07:16;;;;;;;24.45;5.47;;;6.70;99.90;;;;;;5066924;28;20048;-60
2023/01/30 09:09:42;;;;;;;27.13;6.15;;;6.80;99.90;;;;;;5071129;28;20028;-59
2023/01/30 09:12:07;;;;;;;22.73;5.32;;;6.80;99.90;;;;;;5066351;28;20040;-61
2023/01/30 09:14:33;;;;;;;25.30;5.40;;;6.80;99.90;;;;;;5080041;28;20131;-59
2023/01/30 09:16:59;;;;;;;20.10;4.90;;;6.90;99.90;;;;;;5064202;28;20043;-60
2023/01/30 09:19:27;;;;;;;19.85;4.97;;;6.90;99.90;;;;;;5067905;28;20111;-59
2023/01/30 09:21:53;;;;;;;21.75;4.78;;;7.00;99.90;;;;;;5062808;28;20048;-62
2023/01/30 09:24:25;;;;;;;20.58;4.45;;;7.00;99.90;;;;;;5065623;28;20043;-59
2023/01/30 09:26:56;;;;;;;22.70;5.13;;;7.00;99.90;;;;;;5096771;28;20036;-61
2023/01/30 09:29:22;;;;;;;20.38;5.07;;;7.00;99.90;;;;;;5064932;28;20044;-62
2023/01/30 09:31:48;;;;;;;22.90;5.22;;;7.00;99.90;;;;;;5066423;28;20036;-57
2023/01/30 09:34:13;;;;;;;23.40;5.47;;;7.00;99.90;;;;;;5064582;28;20440;-60
2023/01/30 09:36:39;;;;;;;17.20;5.30;;;7.00;99.90;;;;;;5064566;28;20432;-58
2023/01/30 09:39:05;;;;;;;25.73;5.78;;;7.00;99.90;;;;;;5069960;28;20375;-60
2023/01/30 09:41:59;;;;;;;28.42;5.90;;;7.10;99.90;;;;;;5064805;28;20058;-59
2023/01/30 09:45:00;;;;;;;26.35;6.05;;;7.10;99.90;;;;;;5058648;28;20044;-59
2023/01/30 09:47:37;;;;;;;20.00;5.28;;;7.10;99.90;;;;;;5059792;28;20445;-58
2023/01/30 09:50:33;;;;;;;23.08;4.88;;;7.10;99.90;;;;;;5079667;28;20475;-61
2023/01/30 09:53:32;;;;;;;28.48;6.03;;;7.00;99.90;;;;;;5058696;28;20339;-61
2023/01/30 09:55:58;;;;;;;23.40;5.45;;;7.10;99.90;;;;;;5064145;28;20028;-60
2023/01/30 09:58:27;;;;;;;23.75;6.40;;;7.10;99.90;;;;;;5062796;28;20058;-61
2023/01/30 10:01:02;;;;;;;30.88;6.40;;;7.10;99.90;;;;;;5062540;28;20075;-61
2023/01/30 10:03:36;;;;;;;21.90;4.93;;;7.30;99.90;;;;;;5061738;28;20112;-61
2023/01/30 10:06:05;;;;;;;26.23;6.03;;;7.50;99.90;;;;;;5062242;28;20468;-59
2023/01/30 10:08:48;;;;;;;22.42;5.78;;;7.50;99.90;;;;;;5043095;28;20123;-58
2023/01/30 10:12:01;;;;;;;20.63;5.28;;;7.40;99.90;;;;;;5060263;28;20095;-61
2023/01/30 10:14:48;;;;;;;24.02;4.82;;;7.40;99.90;;;;;;5059565;28;20119;-59
2023/01/30 10:17:35;;;;;;;22.60;6.05;;;7.40;99.90;;;;;;5065782;28;20086;-61
2023/01/30 10:20:15;;;;;;;29.58;6.40;;;7.40;99.90;;;;;;5064360;28;20040;-59
2023/01/30 10:23:16;;;;;;;27.50;5.63;;;7.40;99.90;;;;;;5062252;28;20083;-63
2023/01/30 10:25:53;;;;;;;26.83;5.50;;;7.50;99.90;;;;;;5062424;28;20024;-61
2023/01/30 10:28:37;;;;;;;21.98;5.35;;;7.60;99.90;;;;;;5067096;28;20455;-61
2023/01/30 10:31:10;;;;;;;30.98;5.95;;;7.70;99.90;;;;;;5082248;28;20054;-61
2023/01/30 10:33:44;;;;;;;29.85;6.13;;;7.70;99.90;;;;;;5050990;28;20047;-60
2023/01/30 10:36:43;;;;;;;28.05;6.10;;;7.90;99.90;;;;;;5068721;28;20039;-58
2023/01/30 10:39:47;;;;;;;22.52;5.57;;;7.90;99.90;;;;;;5065659;28;20441;-59
2023/01/30 10:42:21;;;;;;;31.33;6.40;;;7.90;99.90;;;;;;5069172;28;20063;-60
2023/01/30 10:44:47;;;;;;;26.95;6.03;;;7.90;99.90;;;;;;5065443;28;20036;-56
2023/01/30 10:47:31;;;;;;;26.75;6.15;;;7.90;99.90;;;;;;5073382;28;20043;-58
2023/01/30 10:50:10;;;;;;;25.02;5.65;;;7.90;99.90;;;;;;5070989;28;20362;-59
2023/01/30 10:53:12;;;;;;;22.52;5.43;;;7.90;99.90;;;;;;5075401;28;20100;-58
2023/01/30 10:55:47;;;;;;;24.00;4.80;;;7.90;99.90;;;;;;5098723;28;20473;-58
2023/01/30 10:58:27;;;;;;;;;;;8.00;99.90;;;;;;5062692;28;20124;-58
2023/01/30 11:01:05;;;;;;;26.30;5.88;;;8.00;99.90;;;;;;5069844;28;19924;-62
2023/01/30 11:03:36;;;;;;;24.35;5.63;;;8.10;99.90;;;;;;5081884;28;20032;-60
2023/01/30 11:06:07;;;;;;;29.90;6.72;;;8.10;99.90;;;;;;5095977;28;20416;-62
2023/01/30 11:08:35;;;;;;;30.38;6.18;;;8.00;99.90;;;;;;5069247;28;20101;-59
2023/01/30 11:11:24;;;;;;;25.65;5.60;;;8.00;99.90;;;;;;5050963;28;20032;-59
2023/01/30 11:13:49;;;;;;;29.48;7.03;;;8.10;99.90;;;;;;5051302;28;20040;-60
2023/01/30 11:16:16;;;;;;;27.40;6.93;;;8.10;99.90;;;;;;5067848;28;20152;-60
2023/01/30 11:18:48;;;;;;;29.27;8.05;;;8.30;99.90;;;;;;5069344;28;20101;-59
2023/01/30 11:21:23;;;;;;;25.13;7.13;;;8.40;99.90;;;;;;5070454;28;20094;-61
2023/01/30 11:23:50;;;;;;;29.17;6.78;;;8.40;99.90;;;;;;5054465;28;20047;-59
2023/01/30 11:26:31;;;;;;;29.23;7.05;;;8.30;99.90;;;;;;5084372;28;20064;-60
2023/01/30 11:28:57;;;;;;;25.42;6.70;;;8.30;99.90;;;;;;5071429;28;20329;-61
2023/01/30 11:31:28;;;;;;;25.92;7.72;;;8.30;99.90;;;;;;5068827;28;20460;-61
2023/01/30 11:34:24;;;;;;;25.23;6.57;;;8.30;99.90;;;;;;5071318;28;20106;-61
2023/01/30 11:36:50;;;;;;;23.45;6.53;;;8.30;99.90;;;;;;5060486;28;20091;-60
2023/01/30 11:39:19;;;;;;;37.70;5.82;;;8.30;99.90;;;;;;5099942;28;20438;-60
2023/01/30 11:41:57;;;;;;;30.00;6.03;;;8.30;99.90;;;;;;5080577;28;20040;-59
2023/01/30 11:44:27;;;;;;;26.33;6.50;;;8.50;99.90;;;;;;5077200;28;20040;-63
2023/01/30 11:46:53;;;;;;;23.92;6.13;;;8.50;99.90;;;;;;5075778;28;20044;-60
2023/01/30 11:49:21;;;;;;;25.25;6.18;;;8.50;99.90;;;;;;5075060;28;20070;-60
2023/01/30 11:51:51;;;;;;;21.58;5.95;;;8.50;99.90;;;;;;5069301;28;20101;-60
2023/01/30 11:54:34;;;;;;;26.92;6.22;;;8.50;99.90;;;;;;5069953;28;20059;-60
2023/01/30 11:57:03;;;;;;;23.13;6.63;;;8.40;99.90;;;;;;5067669;28;20043;-60
2023/01/30 12:00:18;;;;;;;26.73;6.63;;;8.40;99.90;;;;;;5066445;28;20048;-60
2023/01/30 12:02:46;;;;;;;22.55;6.65;;;8.40;99.90;;;;;;4995527;28;20133;-62
2023/01/30 12:05:27;;;;;;;18.92;5.65;;;8.40;99.90;;;;;;4995678;28;20491;-61
2023/01/30 12:08:09;;;;;;;30.58;6.70;;;8.50;99.90;;;;;;5045202;28;20049;-60
2023/01/30 12:10:41;;;;;;;22.88;5.97;;;8.60;99.90;;;;;;5068032;28;20093;-60
2023/01/30 12:13:21;;;;;;;24.30;6.43;;;8.50;99.90;;;;;;5066855;28;20082;-63
2023/01/30 12:16:03;;;;;;;29.48;5.68;;;8.40;99.90;;;;;;5062881;28;20444;-62
2023/01/30 12:18:36;;;;;;;27.70;6.90;;;8.50;99.90;;;;;;5067751;28;20060;-61
2023/01/30 12:21:12;;;;;;;26.33;7.30;;;8.40;99.90;;;;;;5069220;28;20029;-62
2023/01/30 12:23:52;;;;;;;23.58;6.30;;;8.40;99.90;;;;;;5063091;28;20036;-62
2023/01/30 12:26:28;;;;;;;29.70;6.20;;;8.40;99.90;;;;;;5068734;28;20413;-60
2023/01/30 12:29:22;;;;;;;26.10;6.80;;;8.20;99.90;;;;;;5075372;28;20068;-61
2023/01/30 12:32:06;;;;;;;31.63;6.13;;;8.00;99.90;;;;;;5068080;28;20097;-59
2023/01/30 12:34:32;;;;;;;16.23;4.43;;;7.60;99.90;;;;;;5098381;28;20100;-62
2023/01/30 12:37:43;;;;;;;15.57;4.28;;;7.20;99.90;;;;;;5071563;28;20115;-61
2023/01/30 12:40:26;;;;;;;13.90;3.60;;;7.00;99.90;;;;;;5081048;28;20135;-59
2023/01/30 12:43:18;;;;;;;18.45;3.50;;;6.90;99.90;;;;;;5070267;28;20358;-58
2023/01/30 12:45:46;;;;;;;16.20;3.85;;;6.80;99.90;;;;;;5048844;28;20036;-61
2023/01/30 12:48:30;;;;;;;23.73;5.90;;;6.60;99.90;;;;;;5072978;28;20078;-61
2023/01/30 12:51:20;;;;;;;22.65;6.10;;;6.70;99.90;;;;;;5097097;28;20075;-61
2023/01/30 12:54:07;;;;;;;19.55;5.18;;;6.80;99.90;;;;;;5080528;28;20052;-60
2023/01/30 12:57:00;;;;;;;22.13;5.70;;;6.90;99.90;;;;;;5051012;28;20044;-61
2023/01/30 12:59:48;;;;;;;24.20;6.40;;;7.00;99.90;;;;;;5058921;28;20067;-61
2023/01/30 13:02:29;;;;;;;22.80;6.47;;;7.10;99.90;;;;;;5062825;28;20059;-61
2023/01/30 13:05:32;;;;;;;28.05;6.97;;;7.20;99.90;;;;;;5080787;28;20353;-59
2023/01/30 13:08:22;;;;;;;28.65;7.55;;;7.20;99.90;;;;;;5013078;28;20334;-61
2023/01/30 13:10:58;;;;;;;27.67;7.43;;;7.30;99.90;;;;;;5069053;28;20040;-60